Weather History for KCWI - November, 2014

Change the Weather History Date:

Wednesday, November 19, 2014

  Actual Average Record
Temperature  
Mean Temperature 20 °F -  
Max Temperature 26 °F 47 °F 68 °F (1953)
Min Temperature 15 °F 30 °F 12 °F (1969)
Degree Days  
Heating Degree Days 44    
Moisture  
Dew Point 13 °F    
Average Humidity 69    
Maximum Humidity 80    
Minimum Humidity 54    
Precipitation  
Precipitation 0.00 in - - ()
Sea Level Pressure  
Sea Level Pressure 29.93 in    
Wind  
Wind Speed 13 mph (West)    
Max Wind Speed 29 mph    
Max Gust Speed 37 mph    
Visibility 10 miles    
Events      
Averages and records for this station are not official NWS values.
T = Trace of Precipitation, MM = Missing Value Source: NWS Daily Summary

Daily Weather History Graph

Daily Weather History Graph

Search for Another Location

Airport or City:

Trip Planner

Search our weather history database for the weather conditions in past years. The results will help you decide how hot, cold, wet, or windy it might be!

Date:

Astronomy

Nov. 19, 2014 Rise Set
Actual Time 6:55 AM CST 4:37 PM CST
Civil Twilight 6:25 AM CST 5:07 PM CST
Nautical Twilight 5:51 AM CST 5:41 PM CST
Astronomical Twilight 5:18 AM CST 6:14 PM CST
Moon 3:48 AM CST (11/19) 3:07 PM CST (11/19)
Length of Visible Light 10h 42m
Length of Day
9h 41m
Waning Crescent, 8% of the Moon is Illuminated
Nov 19
Waning Crescent
Nov 22
New
Nov 29
First Quarter
Dec 6
Full
Dec 14
Last Quarter

Hourly Weather History & Observations

Time (CST) Temp. Windchill Dew Point Humidity Pressure Visibility Wind Dir Wind Speed Gust Speed Precip Events Conditions
12:15 AM 15.8 °F 2.7 °F 8.6 °F 73% 29.96 in 10.0 mi SSE 11.5 mph - N/A   Overcast
12:35 AM 15.8 °F 2.7 °F 8.6 °F 73% 29.94 in 10.0 mi SSE 11.5 mph - N/A   Mostly Cloudy
12:55 AM 15.8 °F 4.2 °F 8.6 °F 73% 29.93 in 10.0 mi SSE 9.2 mph - N/A   Overcast
1:15 AM 17.6 °F 6.4 °F 10.4 °F 73% 29.91 in 10.0 mi SE 9.2 mph - N/A   Overcast
1:35 AM 17.6 °F 7.3 °F 10.4 °F 73% 29.89 in 10.0 mi SE 8.1 mph - N/A   Overcast
1:55 AM 19.4 °F 9.5 °F 10.4 °F 68% 29.88 in 10.0 mi SE 8.1 mph - N/A   Overcast
2:15 AM 19.4 °F 7.9 °F 12.2 °F 74% 29.86 in 10.0 mi SE 10.4 mph - N/A   Overcast
2:35 AM 19.4 °F 7.9 °F 12.2 °F 74% 29.85 in 10.0 mi SSE 10.4 mph - N/A   Overcast
2:55 AM 21.2 °F 10.1 °F 12.2 °F 68% 29.84 in 10.0 mi SSE 10.4 mph - N/A   Overcast
3:15 AM 21.2 °F 12.6 °F 12.2 °F 68% 29.83 in 10.0 mi SSE 6.9 mph - N/A   Overcast
3:35 AM 21.2 °F 12.6 °F 12.2 °F 68% 29.82 in 10.0 mi SSE 6.9 mph - N/A   Overcast
3:55 AM 21.2 °F 12.6 °F 14.0 °F 74% 29.81 in 10.0 mi SSE 6.9 mph - N/A   Mostly Cloudy
4:15 AM 21.2 °F 11.7 °F 14.0 °F 74% 29.80 in 10.0 mi South 8.1 mph - N/A   Mostly Cloudy
4:35 AM 23.0 °F 15.8 °F 15.8 °F 74% 29.79 in 10.0 mi South 5.8 mph - N/A   Overcast
4:55 AM 23.0 °F 15.8 °F 15.8 °F 74% 29.79 in 10.0 mi South 5.8 mph - N/A   Overcast
5:15 AM 21.2 °F 13.6 °F 14.0 °F 74% 29.79 in 10.0 mi South 5.8 mph - N/A   Overcast
5:35 AM 19.4 °F 10.4 °F 12.2 °F 74% 29.79 in 10.0 mi South 6.9 mph - N/A   Mostly Cloudy
5:55 AM 19.4 °F 12.8 °F 14.0 °F 80% 29.79 in 10.0 mi SSW 4.6 mph - N/A   Overcast
6:15 AM 21.2 °F 14.9 °F 15.8 °F 80% 29.79 in 10.0 mi SW 4.6 mph - N/A   Overcast
6:35 AM 19.4 °F 14.3 °F 12.2 °F 74% 29.79 in 10.0 mi WSW 3.5 mph - N/A   Mostly Cloudy
6:55 AM 19.4 °F 12.8 °F 12.2 °F 74% 29.80 in 10.0 mi West 4.6 mph - N/A   Mostly Cloudy
7:15 AM 19.4 °F 10.4 °F 12.2 °F 74% 29.81 in 10.0 mi West 6.9 mph - N/A   Mostly Cloudy
7:35 AM 21.2 °F 11.7 °F 15.8 °F 80% 29.81 in 10.0 mi West 8.1 mph - N/A   Overcast
7:55 AM 21.2 °F 9.5 °F 15.8 °F 80% 29.82 in 10.0 mi West 11.5 mph - N/A   Overcast
8:15 AM 23.0 °F 11.7 °F 17.6 °F 80% 29.82 in 10.0 mi West 11.5 mph - N/A   Overcast
8:35 AM 24.8 °F 11.9 °F 17.6 °F 74% 29.84 in 10.0 mi WNW 16.1 mph - N/A   Overcast
8:55 AM 24.8 °F 12.4 °F 17.6 °F 74% 29.85 in 10.0 mi WNW 15.0 mph - N/A   Overcast
9:15 AM 26.6 °F 14.3 °F 17.6 °F 69% 29.86 in 10.0 mi WNW 16.1 mph - N/A   Overcast
9:35 AM 26.6 °F 13.1 °F 17.6 °F 69% 29.87 in 10.0 mi WNW 19.6 mph 26.5 mph N/A   Overcast
9:55 AM 26.6 °F 11.7 °F 15.8 °F 64% 29.87 in 10.0 mi WNW 24.2 mph 29.9 mph N/A   Overcast
10:15 AM 26.6 °F 13.1 °F 17.6 °F 69% 29.89 in 10.0 mi WNW 19.6 mph 24.2 mph N/A   Overcast
10:35 AM 26.6 °F 11.4 °F 15.8 °F 64% 29.89 in 10.0 mi WNW 25.3 mph 31.1 mph N/A   Overcast
10:55 AM 24.8 °F 10.7 °F 15.8 °F 69% 29.90 in 10.0 mi WNW 19.6 mph 31.1 mph N/A   Overcast
11:15 AM 26.6 °F 10.6 °F 15.8 °F 64% 29.91 in 10.0 mi WNW 28.8 mph - N/A   Overcast
11:35 AM 26.6 °F 10.8 °F 15.8 °F 64% 29.91 in 10.0 mi WNW 27.6 mph 33.4 mph N/A   Overcast
11:55 AM 26.6 °F 11.4 °F 15.8 °F 64% 29.91 in 10.0 mi WNW 25.3 mph 31.1 mph N/A   Overcast
12:15 PM 26.6 °F 11.4 °F 14.0 °F 59% 29.91 in 10.0 mi WNW 25.3 mph 33.4 mph N/A   Mostly Cloudy
12:35 PM 26.6 °F 11.1 °F 12.2 °F 55% 29.92 in 10.0 mi WNW 26.5 mph 36.8 mph N/A   Mostly Cloudy
12:55 PM 24.8 °F 10.0 °F 12.2 °F 59% 29.92 in 10.0 mi WNW 21.9 mph 34.5 mph N/A   Mostly Cloudy
1:15 PM 26.6 °F 11.1 °F 14.0 °F 59% 29.92 in 10.0 mi WNW 26.5 mph 33.4 mph N/A   Overcast
1:35 PM 26.6 °F 11.4 °F 12.2 °F 55% 29.93 in 10.0 mi WNW 25.3 mph 32.2 mph N/A   Overcast
1:55 PM 24.8 °F 8.1 °F 14.0 °F 64% 29.94 in 10.0 mi WNW 28.8 mph 34.5 mph N/A   Overcast
2:15 PM 24.8 °F 9.0 °F 12.2 °F 59% 29.95 in 10.0 mi WNW 25.3 mph 35.7 mph N/A   Overcast
2:35 PM 24.8 °F 9.3 °F 10.4 °F 54% 29.96 in 10.0 mi WNW 24.2 mph 34.5 mph N/A   Overcast
2:55 PM 24.8 °F 8.1 °F 10.4 °F 54% 29.96 in 10.0 mi WNW 28.8 mph 35.7 mph N/A   Overcast
3:15 PM 24.8 °F 9.6 °F 12.2 °F 59% 29.97 in 10.0 mi West 23.0 mph 31.1 mph N/A   Overcast
3:35 PM 24.8 °F 10.7 °F 12.2 °F 59% 29.98 in 10.0 mi WNW 19.6 mph 31.1 mph N/A   Overcast
3:55 PM 24.8 °F 10.0 °F 12.2 °F 59% 29.98 in 10.0 mi WNW 21.9 mph 28.8 mph N/A   Overcast
4:15 PM 24.8 °F 9.0 °F 12.2 °F 59% 29.99 in 10.0 mi WNW 25.3 mph 31.1 mph N/A   Overcast
4:35 PM 24.8 °F 10.7 °F 12.2 °F 59% 30.00 in 10.0 mi West 19.6 mph 28.8 mph N/A   Overcast
4:55 PM 23.0 °F 8.7 °F 12.2 °F 63% 30.01 in 10.0 mi WNW 18.4 mph 24.2 mph N/A   Overcast
5:15 PM 23.0 °F 9.6 °F 12.2 °F 63% 30.01 in 10.0 mi WNW 16.1 mph 24.2 mph N/A   Overcast
5:35 PM 23.0 °F 9.6 °F 12.2 °F 63% 30.01 in 10.0 mi West 16.1 mph 21.9 mph N/A   Overcast
5:55 PM 24.8 °F 10.7 °F 14.0 °F 64% 30.02 in 10.0 mi West 19.6 mph - N/A   Overcast
6:15 PM 23.0 °F 10.1 °F 12.2 °F 63% 30.03 in 10.0 mi West 15.0 mph 24.2 mph N/A   Overcast
6:35 PM 21.2 °F 8.9 °F 12.2 °F 68% 30.04 in 10.0 mi West 12.7 mph - N/A   Scattered Clouds
6:55 PM 19.4 °F 7.9 °F 12.2 °F 74% 30.05 in 10.0 mi West 10.4 mph - N/A   Clear
7:15 PM 19.4 °F 7.2 °F 12.2 °F 74% 30.06 in 10.0 mi West 11.5 mph - N/A   Partly Cloudy
7:55 PM 19.4 °F 5.5 °F 12.2 °F 74% 30.07 in 10.0 mi West 15.0 mph - N/A   Clear
8:15 PM 19.4 °F 6.0 °F 12.2 °F 74% 30.07 in 10.0 mi West 13.8 mph - N/A   Clear
8:35 PM 19.4 °F 5.5 °F 12.2 °F 74% 30.07 in 10.0 mi West 15.0 mph - N/A   Clear
8:55 PM 19.4 °F 7.2 °F 12.2 °F 74% 30.07 in 10.0 mi West 11.5 mph - N/A   Clear
9:15 PM 17.6 °F 5.7 °F 12.2 °F 79% 30.08 in 10.0 mi West 10.4 mph - N/A   Clear
9:35 PM 17.6 °F 5.7 °F 12.2 °F 79% 30.08 in 10.0 mi West 10.4 mph - N/A   Clear
9:55 PM 17.6 °F 5.7 °F 10.4 °F 73% 30.08 in 10.0 mi West 10.4 mph - N/A   Clear
10:15 PM 17.6 °F 5.7 °F 10.4 °F 73% 30.08 in 10.0 mi West 10.4 mph - N/A   Clear
10:35 PM 19.4 °F 6.6 °F 12.2 °F 74% 30.08 in 10.0 mi West 12.7 mph - N/A   Clear
10:55 PM 19.4 °F 7.2 °F 12.2 °F 74% 30.08 in 10.0 mi West 11.5 mph - N/A   Clear
11:15 PM 17.6 °F 5.7 °F 10.4 °F 73% 30.09 in 10.0 mi West 10.4 mph - N/A   Clear
11:35 PM 17.6 °F 5.0 °F 12.2 °F 79% 30.08 in 10.0 mi West 11.5 mph - N/A   Clear
11:55 PM 17.6 °F 4.3 °F 12.2 °F 79% 30.09 in 10.0 mi West 12.7 mph - N/A   Clear